sensor_id;sensor_type;location;lat;lon;timestamp;pressure;altitude;pressure_sealevel;temperature;humidity
41706;BME280;27385;51.096;17.190;2023-07-20T00:01:40;99660.66;;;18.05;66.17
41706;BME280;27385;51.096;17.190;2023-07-20T00:04:15;99660.48;;;18.04;66.39
41706;BME280;27385;51.096;17.190;2023-07-20T00:06:45;99664.59;;;18.06;66.85
41706;BME280;27385;51.096;17.190;2023-07-20T00:09:16;99670.96;;;18.03;67.01
41706;BME280;27385;51.096;17.190;2023-07-20T00:11:52;99672.13;;;18.01;67.79
41706;BME280;27385;51.096;17.190;2023-07-20T00:14:23;99672.95;;;17.96;68.00
41706;BME280;27385;51.096;17.190;2023-07-20T00:16:56;99671.66;;;17.91;68.35
41706;BME280;27385;51.096;17.190;2023-07-20T00:19:27;99685.86;;;17.87;68.93
41706;BME280;27385;51.096;17.190;2023-07-20T00:21:58;99702.80;;;17.79;69.53
41706;BME280;27385;51.096;17.190;2023-07-20T00:24:30;99704.80;;;17.74;69.96
41706;BME280;27385;51.096;17.190;2023-07-20T00:27:01;99704.86;;;17.70;70.27
41706;BME280;27385;51.096;17.190;2023-07-20T00:29:32;99716.55;;;17.66;71.20
41706;BME280;27385;51.096;17.190;2023-07-20T00:32:03;99732.23;;;17.59;71.68
41706;BME280;27385;51.096;17.190;2023-07-20T00:34:35;99738.58;;;17.50;72.27
41706;BME280;27385;51.096;17.190;2023-07-20T00:37:06;99738.64;;;17.42;72.96
41706;BME280;27385;51.096;17.190;2023-07-20T00:39:37;99729.91;;;17.33;73.19
41706;BME280;27385;51.096;17.190;2023-07-20T00:42:08;99726.07;;;17.27;73.54
41706;BME280;27385;51.096;17.190;2023-07-20T00:44:38;99723.00;;;17.23;74.20
41706;BME280;27385;51.096;17.190;2023-07-20T00:47:10;99720.21;;;17.18;74.44
41706;BME280;27385;51.096;17.190;2023-07-20T00:49:41;99726.13;;;17.13;74.92
41706;BME280;27385;51.096;17.190;2023-07-20T00:52:13;99719.98;;;17.10;75.11
41706;BME280;27385;51.096;17.190;2023-07-20T00:54:45;99710.48;;;17.11;75.19
41706;BME280;27385;51.096;17.190;2023-07-20T00:57:17;99705.61;;;17.14;75.57
41706;BME280;27385;51.096;17.190;2023-07-20T00:59:48;99705.09;;;17.14;75.76
41706;BME280;27385;51.096;17.190;2023-07-20T01:02:18;99698.02;;;17.13;75.68
41706;BME280;27385;51.096;17.190;2023-07-20T01:04:49;99677.73;;;17.19;75.67
41706;BME280;27385;51.096;17.190;2023-07-20T01:07:25;99669.61;;;17.26;76.58
41706;BME280;27385;51.096;17.190;2023-07-20T01:10:03;99664.09;;;17.28;76.86
41706;BME280;27385;51.096;17.190;2023-07-20T01:12:42;99681.25;;;17.29;76.96
41706;BME280;27385;51.096;17.190;2023-07-20T01:15:13;99695.52;;;17.28;77.17
41706;BME280;27385;51.096;17.190;2023-07-20T01:17:44;99704.91;;;17.25;77.41
41706;BME280;27385;51.096;17.190;2023-07-20T01:20:18;99712.02;;;17.24;77.57
41706;BME280;27385;51.096;17.190;2023-07-20T01:23:22;99720.30;;;17.22;77.93
41706;BME280;27385;51.096;17.190;2023-07-20T01:26:27;99709.23;;;17.17;78.21
41706;BME280;27385;51.096;17.190;2023-07-20T01:29:14;99712.80;;;17.13;78.44
41706;BME280;27385;51.096;17.190;2023-07-20T01:31:52;99706.51;;;17.12;78.60
41706;BME280;27385;51.096;17.190;2023-07-20T01:34:24;99706.92;;;17.12;78.76
41706;BME280;27385;51.096;17.190;2023-07-20T01:36:57;99699.65;;;17.15;78.89
41706;BME280;27385;51.096;17.190;2023-07-20T01:39:28;99694.54;;;17.17;79.08
41706;BME280;27385;51.096;17.190;2023-07-20T01:41:58;99693.27;;;17.18;79.36
41706;BME280;27385;51.096;17.190;2023-07-20T01:44:30;99695.30;;;17.17;79.39
41706;BME280;27385;51.096;17.190;2023-07-20T01:47:01;99691.70;;;17.18;79.60
41706;BME280;27385;51.096;17.190;2023-07-20T01:49:32;99690.00;;;17.18;79.65
41706;BME280;27385;51.096;17.190;2023-07-20T01:52:03;99686.46;;;17.18;79.54
41706;BME280;27385;51.096;17.190;2023-07-20T01:54:34;99681.79;;;17.19;79.58
41706;BME280;27385;51.096;17.190;2023-07-20T01:57:05;99685.25;;;17.17;79.61
41706;BME280;27385;51.096;17.190;2023-07-20T01:59:36;99681.98;;;17.16;79.73
41706;BME280;27385;51.096;17.190;2023-07-20T02:02:08;99682.69;;;17.14;79.75
41706;BME280;27385;51.096;17.190;2023-07-20T02:04:38;99685.55;;;17.11;79.68
41706;BME280;27385;51.096;17.190;2023-07-20T02:07:09;99684.28;;;17.07;79.69
41706;BME280;27385;51.096;17.190;2023-07-20T02:09:40;99685.06;;;17.04;79.79
41706;BME280;27385;51.096;17.190;2023-07-20T02:12:11;99687.77;;;17.02;79.75
41706;BME280;27385;51.096;17.190;2023-07-20T02:14:42;99687.27;;;16.97;79.87
41706;BME280;27385;51.096;17.190;2023-07-20T02:17:12;99688.23;;;16.94;79.85
41706;BME280;27385;51.096;17.190;2023-07-20T02:19:43;99692.11;;;16.92;80.04
41706;BME280;27385;51.096;17.190;2023-07-20T02:22:14;99687.88;;;16.87;79.99
41706;BME280;27385;51.096;17.190;2023-07-20T02:24:46;99687.79;;;16.83;80.29
41706;BME280;27385;51.096;17.190;2023-07-20T02:27:16;99686.52;;;16.78;80.45
41706;BME280;27385;51.096;17.190;2023-07-20T02:29:47;99684.59;;;16.74;80.46
41706;BME280;27385;51.096;17.190;2023-07-20T02:32:19;99691.25;;;16.71;80.60
41706;BME280;27385;51.096;17.190;2023-07-20T02:34:50;99690.80;;;16.67;80.60
41706;BME280;27385;51.096;17.190;2023-07-20T02:37:21;99686.24;;;16.63;80.69
41706;BME280;27385;51.096;17.190;2023-07-20T02:39:52;99687.81;;;16.60;80.77
41706;BME280;27385;51.096;17.190;2023-07-20T02:42:23;99688.37;;;16.58;80.96
41706;BME280;27385;51.096;17.190;2023-07-20T02:44:55;99694.85;;;16.55;81.03
41706;BME280;27385;51.096;17.190;2023-07-20T02:47:26;99698.30;;;16.54;81.28
41706;BME280;27385;51.096;17.190;2023-07-20T02:49:56;99701.67;;;16.51;81.51
41706;BME280;27385;51.096;17.190;2023-07-20T02:52:27;99702.09;;;16.49;81.43
41706;BME280;27385;51.096;17.190;2023-07-20T02:54:59;99703.95;;;16.47;81.48
41706;BME280;27385;51.096;17.190;2023-07-20T02:57:30;99703.00;;;16.46;81.53
41706;BME280;27385;51.096;17.190;2023-07-20T03:00:01;99700.63;;;16.43;81.84
41706;BME280;27385;51.096;17.190;2023-07-20T03:02:35;99698.65;;;16.41;81.88
41706;BME280;27385;51.096;17.190;2023-07-20T03:05:07;99697.73;;;16.38;81.98
41706;BME280;27385;51.096;17.190;2023-07-20T03:07:38;99694.98;;;16.36;81.93
41706;BME280;27385;51.096;17.190;2023-07-20T03:10:10;99691.10;;;16.35;82.03
41706;BME280;27385;51.096;17.190;2023-07-20T03:12:40;99686.98;;;16.33;82.26
41706;BME280;27385;51.096;17.190;2023-07-20T03:15:11;99690.14;;;16.30;82.46
41706;BME280;27385;51.096;17.190;2023-07-20T03:17:42;99688.70;;;16.27;82.64
41706;BME280;27385;51.096;17.190;2023-07-20T03:20:13;99692.58;;;16.24;82.77
41706;BME280;27385;51.096;17.190;2023-07-20T03:22:44;99687.94;;;16.18;83.05
41706;BME280;27385;51.096;17.190;2023-07-20T03:25:16;99691.95;;;16.13;83.25
41706;BME280;27385;51.096;17.190;2023-07-20T03:27:47;99695.40;;;16.10;83.30
41706;BME280;27385;51.096;17.190;2023-07-20T03:30:18;99695.82;;;16.06;83.52
41706;BME280;27385;51.096;17.190;2023-07-20T03:32:48;99701.08;;;16.03;83.61
41706;BME280;27385;51.096;17.190;2023-07-20T03:35:19;99697.58;;;16.01;83.75
41706;BME280;27385;51.096;17.190;2023-07-20T03:37:50;99699.33;;;16.00;83.75
41706;BME280;27385;51.096;17.190;2023-07-20T03:40:20;99706.90;;;16.00;83.76
41706;BME280;27385;51.096;17.190;2023-07-20T03:42:52;99710.08;;;15.99;83.79
41706;BME280;27385;51.096;17.190;2023-07-20T03:45:22;99707.42;;;15.98;84.10
41706;BME280;27385;51.096;17.190;2023-07-20T03:47:53;99704.50;;;15.98;84.07
41706;BME280;27385;51.096;17.190;2023-07-20T03:50:24;99705.17;;;15.97;84.15
41706;BME280;27385;51.096;17.190;2023-07-20T03:52:55;99699.43;;;15.95;84.25
41706;BME280;27385;51.096;17.190;2023-07-20T03:55:26;99703.14;;;15.93;84.50
41706;BME280;27385;51.096;17.190;2023-07-20T03:57:57;99704.31;;;15.88;84.70
41706;BME280;27385;51.096;17.190;2023-07-20T04:00:28;99708.72;;;15.88;84.70
41706;BME280;27385;51.096;17.190;2023-07-20T04:02:59;99705.85;;;15.88;84.56
41706;BME280;27385;51.096;17.190;2023-07-20T04:05:30;99703.21;;;15.91;84.77
41706;BME280;27385;51.096;17.190;2023-07-20T04:08:01;99704.14;;;15.94;84.84
41706;BME280;27385;51.096;17.190;2023-07-20T04:10:32;99697.48;;;15.96;84.99
41706;BME280;27385;51.096;17.190;2023-07-20T04:13:03;99702.61;;;15.98;84.97
41706;BME280;27385;51.096;17.190;2023-07-20T04:15:33;99707.56;;;15.99;85.30
41706;BME280;27385;51.096;17.190;2023-07-20T04:18:04;99701.52;;;16.01;85.37
41706;BME280;27385;51.096;17.190;2023-07-20T04:20:35;99694.14;;;16.05;85.65
41706;BME280;27385;51.096;17.190;2023-07-20T04:23:05;99706.38;;;16.08;85.78
41706;BME280;27385;51.096;17.190;2023-07-20T04:25:36;99711.56;;;16.13;86.10
41706;BME280;27385;51.096;17.190;2023-07-20T04:28:09;99710.97;;;16.14;86.50
41706;BME280;27385;51.096;17.190;2023-07-20T04:30:40;99714.40;;;16.15;86.62
41706;BME280;27385;51.096;17.190;2023-07-20T04:33:11;99712.21;;;16.18;86.91
41706;BME280;27385;51.096;17.190;2023-07-20T04:35:52;99714.38;;;16.22;87.21
41706;BME280;27385;51.096;17.190;2023-07-20T04:38:23;99717.52;;;16.27;87.73
41706;BME280;27385;51.096;17.190;2023-07-20T04:40:54;99715.95;;;16.34;87.84
41706;BME280;27385;51.096;17.190;2023-07-20T04:43:24;99716.11;;;16.38;88.25
41706;BME280;27385;51.096;17.190;2023-07-20T04:45:55;99722.69;;;16.42;88.17
41706;BME280;27385;51.096;17.190;2023-07-20T04:48:26;99720.73;;;16.45;88.45
41706;BME280;27385;51.096;17.190;2023-07-20T04:50:57;99721.36;;;16.48;88.26
41706;BME280;27385;51.096;17.190;2023-07-20T04:53:27;99716.61;;;16.54;88.36
41706;BME280;27385;51.096;17.190;2023-07-20T04:55:58;99730.20;;;16.59;88.55
41706;BME280;27385;51.096;17.190;2023-07-20T04:58:29;99736.54;;;16.64;88.78
41706;BME280;27385;51.096;17.190;2023-07-20T05:01:00;99740.59;;;16.68;88.82
41706;BME280;27385;51.096;17.190;2023-07-20T05:03:30;99746.55;;;16.74;88.76
41706;BME280;27385;51.096;17.190;2023-07-20T05:06:01;99746.54;;;16.79;89.10
41706;BME280;27385;51.096;17.190;2023-07-20T05:08:32;99748.95;;;16.82;88.85
41706;BME280;27385;51.096;17.190;2023-07-20T05:11:03;99748.00;;;16.88;88.93
41706;BME280;27385;51.096;17.190;2023-07-20T05:13:33;99742.89;;;16.94;88.84
41706;BME280;27385;51.096;17.190;2023-07-20T05:16:05;99742.55;;;17.00;89.08
41706;BME280;27385;51.096;17.190;2023-07-20T05:18:35;99752.02;;;17.08;89.45
41706;BME280;27385;51.096;17.190;2023-07-20T05:21:06;99757.27;;;17.15;89.57
41706;BME280;27385;51.096;17.190;2023-07-20T05:23:37;99765.45;;;17.24;89.80
41706;BME280;27385;51.096;17.190;2023-07-20T05:26:08;99766.64;;;17.34;90.38
41706;BME280;27385;51.096;17.190;2023-07-20T05:28:39;99768.24;;;17.39;90.22
41706;BME280;27385;51.096;17.190;2023-07-20T05:31:09;99773.35;;;17.43;90.22
41706;BME280;27385;51.096;17.190;2023-07-20T05:33:40;99775.20;;;17.47;90.33
41706;BME280;27385;51.096;17.190;2023-07-20T05:36:11;99779.70;;;17.52;90.57
41706;BME280;27385;51.096;17.190;2023-07-20T05:38:53;99779.29;;;17.58;90.66
41706;BME280;27385;51.096;17.190;2023-07-20T05:41:24;99781.75;;;17.61;90.22
41706;BME280;27385;51.096;17.190;2023-07-20T05:43:55;99786.58;;;17.64;90.15
41706;BME280;27385;51.096;17.190;2023-07-20T05:46:27;99789.58;;;17.66;90.06
41706;BME280;27385;51.096;17.190;2023-07-20T05:48:58;99792.19;;;17.66;90.07
41706;BME280;27385;51.096;17.190;2023-07-20T05:51:28;99792.50;;;17.66;89.74
41706;BME280;27385;51.096;17.190;2023-07-20T05:53:59;99788.61;;;17.66;89.64
41706;BME280;27385;51.096;17.190;2023-07-20T05:56:30;99784.41;;;17.65;89.53
41706;BME280;27385;51.096;17.190;2023-07-20T05:59:01;99785.49;;;17.64;89.13
41706;BME280;27385;51.096;17.190;2023-07-20T06:01:32;99784.26;;;17.65;89.14
41706;BME280;27385;51.096;17.190;2023-07-20T06:04:03;99787.73;;;17.65;89.21
41706;BME280;27385;51.096;17.190;2023-07-20T06:06:34;99789.41;;;17.66;88.89
41706;BME280;27385;51.096;17.190;2023-07-20T06:09:05;99781.39;;;17.68;88.93
41706;BME280;27385;51.096;17.190;2023-07-20T06:11:39;99778.09;;;17.69;88.94
41706;BME280;27385;51.096;17.190;2023-07-20T06:14:09;99777.13;;;17.70;88.86
41706;BME280;27385;51.096;17.190;2023-07-20T06:16:40;99786.86;;;17.72;88.83
41706;BME280;27385;51.096;17.190;2023-07-20T06:19:11;99794.16;;;17.71;88.71
41706;BME280;27385;51.096;17.190;2023-07-20T06:21:42;99794.13;;;17.70;88.65
41706;BME280;27385;51.096;17.190;2023-07-20T06:24:12;99795.88;;;17.73;88.64
41706;BME280;27385;51.096;17.190;2023-07-20T06:26:43;99792.41;;;17.77;88.65
41706;BME280;27385;51.096;17.190;2023-07-20T06:29:14;99796.38;;;17.83;88.57
41706;BME280;27385;51.096;17.190;2023-07-20T06:31:44;99800.48;;;17.88;88.14
41706;BME280;27385;51.096;17.190;2023-07-20T06:34:15;99799.02;;;17.95;88.43
41706;BME280;27385;51.096;17.190;2023-07-20T06:36:46;99800.52;;;18.02;88.32
41706;BME280;27385;51.096;17.190;2023-07-20T06:39:16;99803.61;;;18.06;87.93
41706;BME280;27385;51.096;17.190;2023-07-20T06:41:48;99807.77;;;18.12;87.81
41706;BME280;27385;51.096;17.190;2023-07-20T06:44:18;99810.27;;;18.20;88.20
41706;BME280;27385;51.096;17.190;2023-07-20T06:46:49;99813.92;;;18.31;88.15
41706;BME280;27385;51.096;17.190;2023-07-20T06:49:27;99814.79;;;18.40;87.89
41706;BME280;27385;51.096;17.190;2023-07-20T06:51:58;99814.11;;;18.43;87.05
41706;BME280;27385;51.096;17.190;2023-07-20T06:54:28;99813.84;;;18.47;86.80
41706;BME280;27385;51.096;17.190;2023-07-20T06:56:59;99815.55;;;18.52;86.48
41706;BME280;27385;51.096;17.190;2023-07-20T06:59:30;99813.88;;;18.58;86.18
41706;BME280;27385;51.096;17.190;2023-07-20T07:02:00;99819.38;;;18.66;86.77
41706;BME280;27385;51.096;17.190;2023-07-20T07:04:31;99818.17;;;18.74;86.38
41706;BME280;27385;51.096;17.190;2023-07-20T07:07:03;99821.30;;;18.79;85.96
41706;BME280;27385;51.096;17.190;2023-07-20T07:09:34;99817.77;;;18.85;84.96
41706;BME280;27385;51.096;17.190;2023-07-20T07:12:06;99815.79;;;18.90;85.32
41706;BME280;27385;51.096;17.190;2023-07-20T07:14:37;99814.43;;;18.97;84.58
41706;BME280;27385;51.096;17.190;2023-07-20T07:17:07;99821.29;;;19.06;84.24
41706;BME280;27385;51.096;17.190;2023-07-20T07:19:38;99817.54;;;19.04;83.39
41706;BME280;27385;51.096;17.190;2023-07-20T07:22:10;99822.31;;;19.06;83.40
41706;BME280;27385;51.096;17.190;2023-07-20T07:24:41;99823.61;;;19.08;83.29
41706;BME280;27385;51.096;17.190;2023-07-20T07:27:12;99816.72;;;19.15;83.36
41706;BME280;27385;51.096;17.190;2023-07-20T07:29:45;99819.98;;;19.25;82.98
41706;BME280;27385;51.096;17.190;2023-07-20T07:32:16;99817.98;;;19.35;82.33
41706;BME280;27385;51.096;17.190;2023-07-20T07:34:46;99816.94;;;19.43;81.93
41706;BME280;27385;51.096;17.190;2023-07-20T07:37:18;99816.27;;;19.43;81.26
41706;BME280;27385;51.096;17.190;2023-07-20T07:39:50;99819.91;;;19.42;80.71
41706;BME280;27385;51.096;17.190;2023-07-20T07:42:20;99817.27;;;19.46;80.77
41706;BME280;27385;51.096;17.190;2023-07-20T07:44:51;99815.66;;;19.57;80.82
41706;BME280;27385;51.096;17.190;2023-07-20T07:47:22;99816.16;;;19.66;80.54
41706;BME280;27385;51.096;17.190;2023-07-20T07:49:52;99816.32;;;19.72;80.13
41706;BME280;27385;51.096;17.190;2023-07-20T07:52:23;99816.23;;;19.71;79.65
41706;BME280;27385;51.096;17.190;2023-07-20T07:54:54;99822.27;;;19.71;79.33
41706;BME280;27385;51.096;17.190;2023-07-20T07:57:25;99821.88;;;19.66;78.93
41706;BME280;27385;51.096;17.190;2023-07-20T07:59:56;99823.38;;;19.63;78.87
41706;BME280;27385;51.096;17.190;2023-07-20T08:02:27;99825.21;;;19.62;78.83
41706;BME280;27385;51.096;17.190;2023-07-20T08:04:58;99831.28;;;19.61;78.69
41706;BME280;27385;51.096;17.190;2023-07-20T08:07:30;99826.54;;;19.58;78.14
41706;BME280;27385;51.096;17.190;2023-07-20T08:10:01;99826.12;;;19.55;78.19
41706;BME280;27385;51.096;17.190;2023-07-20T08:12:32;99830.60;;;19.57;78.02
41706;BME280;27385;51.096;17.190;2023-07-20T08:15:03;99837.20;;;19.60;77.36
41706;BME280;27385;51.096;17.190;2023-07-20T08:17:34;99835.80;;;19.59;76.81
41706;BME280;27385;51.096;17.190;2023-07-20T08:20:07;99838.02;;;19.55;76.72
41706;BME280;27385;51.096;17.190;2023-07-20T08:22:39;99842.25;;;19.52;76.78
41706;BME280;27385;51.096;17.190;2023-07-20T08:25:10;99845.31;;;19.48;76.82
41706;BME280;27385;51.096;17.190;2023-07-20T08:27:41;99844.42;;;19.49;77.01
41706;BME280;27385;51.096;17.190;2023-07-20T08:30:12;99843.08;;;19.52;76.80
41706;BME280;27385;51.096;17.190;2023-07-20T08:32:43;99842.08;;;19.54;76.42
41706;BME280;27385;51.096;17.190;2023-07-20T08:35:13;99835.03;;;19.59;76.09
41706;BME280;27385;51.096;17.190;2023-07-20T08:37:45;99834.27;;;19.66;76.38
41706;BME280;27385;51.096;17.190;2023-07-20T08:40:17;99834.14;;;19.76;75.88
41706;BME280;27385;51.096;17.190;2023-07-20T08:42:48;99830.42;;;19.82;75.27
41706;BME280;27385;51.096;17.190;2023-07-20T08:45:19;99831.82;;;19.90;74.41
41706;BME280;27385;51.096;17.190;2023-07-20T08:47:51;99827.57;;;20.07;74.88
41706;BME280;27385;51.096;17.190;2023-07-20T08:50:23;99836.44;;;20.28;74.18
41706;BME280;27385;51.096;17.190;2023-07-20T08:52:54;99834.72;;;20.34;72.53
41706;BME280;27385;51.096;17.190;2023-07-20T08:55:28;99834.73;;;20.37;72.31
41706;BME280;27385;51.096;17.190;2023-07-20T08:58:00;99842.19;;;20.38;71.78
41706;BME280;27385;51.096;17.190;2023-07-20T09:00:31;99841.79;;;20.35;71.27
41706;BME280;27385;51.096;17.190;2023-07-20T09:03:03;99847.73;;;20.31;70.92
41706;BME280;27385;51.096;17.190;2023-07-20T09:05:35;99839.66;;;20.27;70.96
41706;BME280;27385;51.096;17.190;2023-07-20T09:08:06;99844.52;;;20.26;70.81
41706;BME280;27385;51.096;17.190;2023-07-20T09:10:37;99844.05;;;20.30;70.32
41706;BME280;27385;51.096;17.190;2023-07-20T09:13:08;99842.79;;;20.37;69.90
41706;BME280;27385;51.096;17.190;2023-07-20T09:15:38;99836.27;;;20.47;69.76
41706;BME280;27385;51.096;17.190;2023-07-20T09:18:09;99838.45;;;20.57;69.75
41706;BME280;27385;51.096;17.190;2023-07-20T09:20:40;99832.13;;;20.69;68.61
41706;BME280;27385;51.096;17.190;2023-07-20T09:23:11;99828.38;;;20.74;68.46
41706;BME280;27385;51.096;17.190;2023-07-20T09:25:42;99838.39;;;20.79;67.60
41706;BME280;27385;51.096;17.190;2023-07-20T09:28:15;99839.91;;;20.79;67.25
41706;BME280;27385;51.096;17.190;2023-07-20T09:30:46;99837.16;;;20.70;67.60
41706;BME280;27385;51.096;17.190;2023-07-20T09:33:22;99837.79;;;20.59;68.48
41706;BME280;27385;51.096;17.190;2023-07-20T09:35:53;99840.81;;;20.48;69.07
41706;BME280;27385;51.096;17.190;2023-07-20T09:38:24;99842.42;;;20.33;69.09
41706;BME280;27385;51.096;17.190;2023-07-20T09:40:57;99842.25;;;20.25;69.22
41706;BME280;27385;51.096;17.190;2023-07-20T09:43:29;99839.60;;;20.14;68.84
41706;BME280;27385;51.096;17.190;2023-07-20T09:46:01;99839.45;;;20.07;69.04
41706;BME280;27385;51.096;17.190;2023-07-20T09:48:32;99835.86;;;20.09;69.68
41706;BME280;27385;51.096;17.190;2023-07-20T09:51:04;99833.55;;;20.21;70.10
41706;BME280;27385;51.096;17.190;2023-07-20T09:53:37;99830.88;;;20.38;69.91
41706;BME280;27385;51.096;17.190;2023-07-20T09:56:08;99831.16;;;20.57;69.32
41706;BME280;27385;51.096;17.190;2023-07-20T09:58:40;99826.81;;;20.71;68.28
41706;BME280;27385;51.096;17.190;2023-07-20T10:01:14;99822.85;;;20.81;67.69
41706;BME280;27385;51.096;17.190;2023-07-20T10:03:47;99822.06;;;20.90;66.82
41706;BME280;27385;51.096;17.190;2023-07-20T10:06:22;99823.67;;;20.95;65.98
41706;BME280;27385;51.096;17.190;2023-07-20T10:08:59;99821.88;;;21.08;65.01
41706;BME280;27385;51.096;17.190;2023-07-20T10:11:34;99824.02;;;21.22;65.20
41706;BME280;27385;51.096;17.190;2023-07-20T10:14:06;99823.17;;;21.33;63.80
41706;BME280;27385;51.096;17.190;2023-07-20T10:16:49;99821.98;;;21.36;63.21
41706;BME280;27385;51.096;17.190;2023-07-20T10:19:24;99814.88;;;21.42;62.89
41706;BME280;27385;51.096;17.190;2023-07-20T10:22:00;99812.55;;;21.49;62.16
41706;BME280;27385;51.096;17.190;2023-07-20T10:24:32;99812.89;;;21.54;61.70
41706;BME280;27385;51.096;17.190;2023-07-20T10:27:05;99809.76;;;21.58;61.23
41706;BME280;27385;51.096;17.190;2023-07-20T10:29:37;99809.24;;;21.68;61.23
41706;BME280;27385;51.096;17.190;2023-07-20T10:32:09;99800.51;;;21.81;60.70
41706;BME280;27385;51.096;17.190;2023-07-20T10:34:40;99803.79;;;21.89;60.16
41706;BME280;27385;51.096;17.190;2023-07-20T10:37:11;99807.31;;;21.98;59.58
41706;BME280;27385;51.096;17.190;2023-07-20T10:40:26;99804.42;;;22.08;59.30
41706;BME280;27385;51.096;17.190;2023-07-20T10:43:01;99808.55;;;22.19;58.61
41706;BME280;27385;51.096;17.190;2023-07-20T10:45:36;99808.28;;;22.19;57.87
41706;BME280;27385;51.096;17.190;2023-07-20T10:48:16;99799.67;;;22.20;57.76
41706;BME280;27385;51.096;17.190;2023-07-20T10:51:13;99803.01;;;22.29;57.29
41706;BME280;27385;51.096;17.190;2023-07-20T10:53:44;99797.70;;;22.44;56.18
41706;BME280;27385;51.096;17.190;2023-07-20T10:56:19;99791.08;;;22.57;55.97
41706;BME280;27385;51.096;17.190;2023-07-20T10:58:56;99791.76;;;22.76;55.33
41706;BME280;27385;51.096;17.190;2023-07-20T11:01:30;99782.58;;;22.84;54.90
41706;BME280;27385;51.096;17.190;2023-07-20T11:04:02;99784.95;;;22.95;54.76
41706;BME280;27385;51.096;17.190;2023-07-20T11:06:38;99784.23;;;23.06;54.38
41706;BME280;27385;51.096;17.190;2023-07-20T11:09:14;99781.23;;;23.11;53.76
41706;BME280;27385;51.096;17.190;2023-07-20T11:11:46;99785.91;;;23.09;53.74
41706;BME280;27385;51.096;17.190;2023-07-20T11:14:24;99779.57;;;23.14;53.58
41706;BME280;27385;51.096;17.190;2023-07-20T11:17:12;99776.08;;;23.23;53.11
41706;BME280;27385;51.096;17.190;2023-07-20T11:19:43;99770.08;;;23.31;51.48
41706;BME280;27385;51.096;17.190;2023-07-20T11:22:19;99774.28;;;23.37;52.10
41706;BME280;27385;51.096;17.190;2023-07-20T11:24:50;99772.25;;;23.46;51.64
41706;BME280;27385;51.096;17.190;2023-07-20T11:27:21;99774.64;;;23.55;51.50
41706;BME280;27385;51.096;17.190;2023-07-20T11:29:52;99767.23;;;23.62;50.92
41706;BME280;27385;51.096;17.190;2023-07-20T11:32:23;99767.35;;;23.65;50.45
41706;BME280;27385;51.096;17.190;2023-07-20T11:34:54;99766.71;;;23.69;50.39
41706;BME280;27385;51.096;17.190;2023-07-20T11:37:25;99767.67;;;23.77;50.34
41706;BME280;27385;51.096;17.190;2023-07-20T11:39:57;99770.58;;;23.84;49.59
41706;BME280;27385;51.096;17.190;2023-07-20T11:42:28;99786.85;;;23.78;48.88
41706;BME280;27385;51.096;17.190;2023-07-20T11:44:59;99823.73;;;23.53;50.10
41706;BME280;27385;51.096;17.190;2023-07-20T11:47:34;99817.14;;;22.66;53.58
41706;BME280;27385;51.096;17.190;2023-07-20T11:50:12;99815.67;;;21.67;55.12
41706;BME280;27385;51.096;17.190;2023-07-20T11:52:43;99818.02;;;20.91;54.38
41706;BME280;27385;51.096;17.190;2023-07-20T11:55:14;99822.73;;;20.46;55.86
41706;BME280;27385;51.096;17.190;2023-07-20T11:58:02;99826.10;;;20.12;57.59
41706;BME280;27385;51.096;17.190;2023-07-20T12:00:33;99827.60;;;20.02;58.97
41706;BME280;27385;51.096;17.190;2023-07-20T12:03:06;99833.75;;;19.97;60.14
41706;BME280;27385;51.096;17.190;2023-07-20T12:05:37;99837.48;;;19.90;61.48
41706;BME280;27385;51.096;17.190;2023-07-20T12:08:08;99845.79;;;19.88;62.53
41706;BME280;27385;51.096;17.190;2023-07-20T12:10:41;99846.73;;;19.87;63.50
41706;BME280;27385;51.096;17.190;2023-07-20T12:13:13;99844.46;;;19.85;63.86
41706;BME280;27385;51.096;17.190;2023-07-20T12:15:44;99845.86;;;19.87;64.66
41706;BME280;27385;51.096;17.190;2023-07-20T12:18:15;99846.79;;;19.89;65.26
41706;BME280;27385;51.096;17.190;2023-07-20T12:20:46;99852.39;;;19.89;65.73
41706;BME280;27385;51.096;17.190;2023-07-20T12:23:17;99852.45;;;19.91;66.28
41706;BME280;27385;51.096;17.190;2023-07-20T12:25:48;99849.42;;;19.95;66.74
41706;BME280;27385;51.096;17.190;2023-07-20T12:28:20;99845.70;;;20.00;66.76
41706;BME280;27385;51.096;17.190;2023-07-20T12:30:51;99844.98;;;20.07;66.79
41706;BME280;27385;51.096;17.190;2023-07-20T12:33:28;99846.45;;;20.16;67.15
41706;BME280;27385;51.096;17.190;2023-07-20T12:35:59;99842.31;;;20.24;66.89
41706;BME280;27385;51.096;17.190;2023-07-20T12:38:30;99833.91;;;20.33;67.04
41706;BME280;27385;51.096;17.190;2023-07-20T12:41:01;99832.61;;;20.47;66.69
41706;BME280;27385;51.096;17.190;2023-07-20T12:43:32;99826.84;;;20.54;65.79
41706;BME280;27385;51.096;17.190;2023-07-20T12:46:03;99824.86;;;20.60;65.30
41706;BME280;27385;51.096;17.190;2023-07-20T12:48:34;99823.03;;;20.63;65.19
41706;BME280;27385;51.096;17.190;2023-07-20T12:51:06;99822.10;;;20.68;64.11
41706;BME280;27385;51.096;17.190;2023-07-20T12:53:37;99815.88;;;20.80;64.31
41706;BME280;27385;51.096;17.190;2023-07-20T12:56:08;99814.47;;;20.94;63.81
41706;BME280;27385;51.096;17.190;2023-07-20T12:58:39;99820.73;;;21.12;62.51
41706;BME280;27385;51.096;17.190;2023-07-20T13:01:09;99823.02;;;21.28;62.59
41706;BME280;27385;51.096;17.190;2023-07-20T13:03:40;99831.19;;;21.37;61.57
41706;BME280;27385;51.096;17.190;2023-07-20T13:06:11;99835.17;;;21.40;60.87
41706;BME280;27385;51.096;17.190;2023-07-20T13:08:41;99833.21;;;21.45;60.99
41706;BME280;27385;51.096;17.190;2023-07-20T13:11:12;99829.63;;;21.51;60.01
41706;BME280;27385;51.096;17.190;2023-07-20T13:13:43;99829.44;;;21.48;60.60
41706;BME280;27385;51.096;17.190;2023-07-20T13:16:14;99823.41;;;21.51;60.80